createdAt,value
2023-05-18T00:08:51.539Z,9.60
2023-05-18T00:19:26.591Z,9.50
2023-05-18T00:30:01.527Z,9.40
2023-05-18T00:40:36.303Z,9.20
2023-05-18T00:51:11.719Z,9.10
2023-05-18T01:01:47.700Z,8.90
2023-05-18T01:12:30.357Z,8.70
2023-05-18T01:23:45.399Z,8.50
2023-05-18T01:34:20.377Z,8.70
2023-05-18T01:45:01.891Z,8.50
2023-05-18T01:55:40.499Z,8.50
2023-05-18T02:06:15.988Z,8.40
2023-05-18T02:16:53.412Z,8.30
2023-05-18T02:27:29.430Z,8.20
2023-05-18T02:38:04.553Z,8.30
2023-05-18T02:48:39.493Z,8.20
2023-05-18T02:59:14.539Z,8.30
2023-05-18T03:09:51.702Z,8.00
2023-05-18T03:20:26.890Z,8.00
2023-05-18T03:31:02.259Z,7.90
2023-05-18T03:41:38.479Z,7.90
2023-05-18T03:52:15.534Z,8.00
2023-05-18T04:02:52.512Z,7.90
2023-05-18T04:13:32.004Z,7.80
2023-05-18T04:24:07.570Z,8.00
2023-05-18T04:34:42.780Z,7.90
2023-05-18T04:45:20.576Z,7.80
2023-05-18T04:55:57.167Z,8.10
2023-05-18T05:06:32.626Z,8.20
2023-05-18T05:17:07.866Z,8.30
2023-05-18T05:27:43.228Z,8.40
2023-05-18T05:38:18.848Z,8.60
2023-05-18T05:48:54.209Z,8.80
2023-05-18T05:59:29.047Z,8.80
2023-05-18T06:10:04.798Z,9.00
2023-05-18T06:20:40.075Z,9.10
2023-05-18T06:31:15.914Z,9.30
2023-05-18T06:41:57.273Z,9.60
2023-05-18T06:52:39.336Z,9.80
2023-05-18T07:03:14.708Z,10.10
2023-05-18T07:13:49.202Z,10.50
2023-05-18T07:24:24.723Z,10.90
2023-05-18T07:34:59.764Z,11.80
2023-05-18T07:45:34.898Z,13.50
2023-05-18T07:56:10.057Z,14.30
2023-05-18T08:06:45.067Z,15.20
2023-05-18T08:17:20.053Z,16.00
2023-05-18T08:27:54.963Z,16.40
2023-05-18T08:38:30.109Z,16.80
2023-05-18T08:49:06.513Z,17.30
2023-05-18T08:59:43.050Z,18.10
2023-05-18T09:10:18.797Z,18.50
2023-05-18T09:20:53.883Z,18.60
2023-05-18T09:31:31.913Z,19.70
2023-05-18T09:42:07.232Z,20.20
2023-05-18T09:52:44.583Z,20.90
2023-05-18T10:03:23.395Z,19.60
2023-05-18T10:13:59.295Z,21.60
2023-05-18T10:24:38.598Z,22.10
2023-05-18T10:35:14.587Z,21.50
2023-05-18T10:45:53.309Z,21.20
2023-05-18T10:56:29.165Z,22.20
2023-05-18T11:07:04.302Z,22.70
2023-05-18T11:17:40.776Z,23.60
2023-05-18T11:28:16.189Z,23.80
2023-05-18T11:38:53.330Z,22.40
2023-05-18T11:49:36.621Z,22.40
2023-05-18T12:00:12.988Z,22.80
2023-05-18T12:10:50.808Z,23.20
2023-05-18T12:21:25.808Z,23.20
2023-05-18T12:32:06.460Z,23.30
2023-05-18T12:42:59.991Z,22.80
2023-05-18T12:53:43.284Z,22.70
2023-05-18T13:04:18.268Z,23.20
2023-05-18T13:14:53.941Z,23.60
2023-05-18T13:25:35.417Z,23.20
2023-05-18T13:36:10.808Z,24.50
2023-05-18T13:46:45.773Z,23.30
2023-05-18T13:57:21.220Z,24.10
2023-05-18T14:07:56.983Z,24.60
2023-05-18T14:18:31.630Z,24.40
2023-05-18T14:29:06.573Z,25.00
2023-05-18T14:39:41.513Z,24.50
2023-05-18T14:50:17.008Z,24.20
2023-05-18T15:00:51.960Z,24.40
2023-05-18T15:11:26.862Z,24.30
2023-05-18T15:22:01.800Z,24.40
2023-05-18T15:32:37.364Z,24.40
2023-05-18T15:43:12.300Z,24.40
2023-05-18T15:53:47.401Z,23.90
2023-05-18T16:04:22.097Z,23.90
2023-05-18T16:14:58.530Z,23.60
2023-05-18T16:25:33.384Z,23.30
2023-05-18T16:36:08.555Z,23.10
2023-05-18T16:46:43.306Z,23.20
2023-05-18T16:57:18.227Z,22.50
2023-05-18T17:07:53.398Z,21.50
2023-05-18T17:18:28.419Z,20.90
2023-05-18T17:29:03.526Z,20.50
2023-05-18T17:39:38.654Z,20.20
2023-05-18T17:50:16.328Z,19.80
2023-05-18T18:00:51.601Z,19.30
2023-05-18T18:11:27.756Z,19.10
2023-05-18T18:22:02.780Z,18.70
2023-05-18T18:32:37.947Z,18.30
2023-05-18T18:43:12.813Z,18.00
2023-05-18T18:53:47.447Z,17.80
2023-05-18T19:04:22.660Z,17.50
2023-05-18T19:14:57.276Z,17.20
2023-05-18T19:25:32.638Z,16.90
2023-05-18T19:36:08.014Z,16.50
2023-05-18T19:46:43.953Z,16.20
2023-05-18T19:57:21.025Z,15.90
2023-05-18T20:07:58.290Z,15.70
2023-05-18T20:18:35.145Z,15.40
2023-05-18T20:29:09.977Z,14.90
2023-05-18T20:39:50.610Z,14.60
2023-05-18T20:50:29.447Z,14.40
2023-05-18T21:01:07.176Z,14.10
2023-05-18T21:11:42.658Z,13.90
2023-05-18T21:22:17.756Z,13.70
2023-05-18T21:32:53.039Z,13.60
2023-05-18T21:43:27.909Z,13.60
2023-05-18T21:54:02.613Z,13.40
2023-05-18T22:04:37.482Z,13.40
2023-05-18T22:15:12.556Z,13.40
2023-05-18T22:25:47.959Z,13.30
2023-05-18T22:36:23.282Z,13.10
2023-05-18T22:46:58.992Z,13.00
2023-05-18T22:57:34.152Z,12.80
2023-05-18T23:08:09.718Z,12.80
2023-05-18T23:18:46.544Z,12.80
2023-05-18T23:29:21.756Z,12.60
2023-05-18T23:39:57.174Z,12.60
2023-05-18T23:50:32.427Z,12.50
